createdAt,value
2018-09-08T00:00:45.129Z,70.04
2018-09-08T00:03:14.181Z,69.91
2018-09-08T00:05:43.342Z,70.43
2018-09-08T00:08:12.229Z,70.81
2018-09-08T00:10:41.339Z,70.71
2018-09-08T00:13:10.363Z,70.64
2018-09-08T00:15:44.345Z,70.29
2018-09-08T00:18:18.389Z,70.51
2018-09-08T00:20:52.322Z,70.14
2018-09-08T00:23:26.517Z,69.88
2018-09-08T00:26:00.699Z,69.91
2018-09-08T00:28:36.593Z,70.24
2018-09-08T00:31:05.747Z,70.57
2018-09-08T00:33:34.769Z,70.24
2018-09-08T00:36:03.962Z,69.83
2018-09-08T00:38:33.009Z,70.30
2018-09-08T00:41:02.079Z,69.63
2018-09-08T00:43:31.431Z,69.19
2018-09-08T00:46:00.376Z,68.95
2018-09-08T00:48:29.397Z,68.99
2018-09-08T00:50:58.645Z,68.47
2018-09-08T00:53:31.348Z,68.49
2018-09-08T00:56:00.524Z,67.87
2018-09-08T00:58:29.606Z,67.76
2018-09-08T01:00:58.654Z,67.43
2018-09-08T01:03:27.640Z,68.42
2018-09-08T01:05:56.615Z,67.80
2018-09-08T01:08:25.534Z,68.35
2018-09-08T01:10:54.485Z,68.43
2018-09-08T01:13:23.492Z,68.88
2018-09-08T01:15:52.487Z,68.89
2018-09-08T01:18:21.496Z,69.60
2018-09-08T01:20:50.605Z,70.29
2018-09-08T01:23:19.625Z,70.40
2018-09-08T01:25:49.791Z,70.63
2018-09-08T01:28:18.633Z,71.17
2018-09-08T01:30:48.085Z,70.11
2018-09-08T01:33:17.092Z,70.73
2018-09-08T01:35:46.123Z,70.71
2018-09-08T01:38:15.346Z,70.19
2018-09-08T01:40:44.636Z,70.58
2018-09-08T01:43:13.788Z,70.77
2018-09-08T01:45:42.708Z,71.14
2018-09-08T01:48:11.602Z,71.85
2018-09-08T01:50:40.592Z,71.24
2018-09-08T01:53:09.559Z,71.87
2018-09-08T01:55:38.529Z,72.05
2018-09-08T01:58:07.408Z,72.09
2018-09-08T02:00:36.380Z,72.12
2018-09-08T02:03:05.735Z,71.95
2018-09-08T02:05:37.846Z,70.88
2018-09-08T02:08:07.458Z,70.40
2018-09-08T02:10:36.417Z,70.29
2018-09-08T02:13:05.422Z,71.03
2018-09-08T02:15:34.340Z,70.44
2018-09-08T02:18:03.191Z,70.98
2018-09-08T02:20:31.976Z,70.42
2018-09-08T02:23:01.931Z,71.10
2018-09-08T02:25:30.964Z,71.32
2018-09-08T02:28:03.460Z,71.34
2018-09-08T02:30:32.964Z,70.65
2018-09-08T02:33:01.788Z,71.68
2018-09-08T02:35:30.909Z,72.52
2018-09-08T02:37:59.944Z,71.99
2018-09-08T02:40:29.829Z,72.18
2018-09-08T02:42:58.821Z,72.96
2018-09-08T02:45:27.707Z,73.77
2018-09-08T02:47:56.667Z,73.79
2018-09-08T02:50:36.612Z,72.66
2018-09-08T02:53:04.768Z,73.57
2018-09-08T02:55:32.846Z,73.75
2018-09-08T02:58:00.610Z,73.62
2018-09-08T03:00:28.473Z,74.11
2018-09-08T03:02:55.987Z,73.94
2018-09-08T03:05:23.810Z,74.27
2018-09-08T03:07:51.363Z,74.02
2018-09-08T03:10:19.409Z,74.18
2018-09-08T03:12:46.877Z,74.06
2018-09-08T03:15:14.343Z,73.79
2018-09-08T03:17:41.858Z,74.65
2018-09-08T03:20:09.425Z,73.99
2018-09-08T03:22:36.849Z,74.66
2018-09-08T03:25:04.346Z,74.44
2018-09-08T03:27:31.994Z,74.83
2018-09-08T03:29:59.595Z,74.87
2018-09-08T03:32:27.108Z,75.71
2018-09-08T03:34:58.053Z,75.73
2018-09-08T03:37:25.682Z,76.37
2018-09-08T03:39:53.194Z,76.58
2018-09-08T03:42:20.661Z,76.71
2018-09-08T03:44:48.126Z,76.56
2018-09-08T03:47:15.698Z,76.39
2018-09-08T03:49:43.225Z,76.78
2018-09-08T03:52:10.758Z,77.70
2018-09-08T03:54:38.295Z,76.91
2018-09-08T03:57:06.049Z,77.11
2018-09-08T03:59:33.469Z,76.74
2018-09-08T04:02:00.885Z,77.75
2018-09-08T04:04:29.797Z,76.43
2018-09-08T04:06:58.716Z,76.92
2018-09-08T04:09:27.640Z,77.14
2018-09-08T04:11:56.688Z,76.02
2018-09-08T04:14:25.769Z,75.83
2018-09-08T04:16:55.746Z,76.20
2018-09-08T04:19:24.648Z,75.07
2018-09-08T04:21:53.658Z,76.00
2018-09-08T04:24:22.470Z,75.05
2018-09-08T04:26:52.885Z,74.86
2018-09-08T04:29:21.835Z,74.09
2018-09-08T04:31:50.712Z,73.99
2018-09-08T04:34:19.669Z,73.17
2018-09-08T04:36:48.640Z,72.89
2018-09-08T04:39:17.610Z,72.18
2018-09-08T04:41:47.461Z,72.07
2018-09-08T04:44:16.360Z,71.27
2018-09-08T04:46:45.358Z,71.37
2018-09-08T04:49:14.407Z,70.44
2018-09-08T04:51:43.352Z,69.49
2018-09-08T04:54:12.326Z,68.75
2018-09-08T04:56:41.284Z,69.04
2018-09-08T04:59:11.204Z,68.57
2018-09-08T05:01:40.132Z,67.75
2018-09-08T05:04:09.369Z,68.31
2018-09-08T05:06:38.295Z,68.31
2018-09-08T05:09:09.848Z,68.00
2018-09-08T05:11:38.648Z,67.07
2018-09-08T05:14:07.706Z,67.32
2018-09-08T05:16:36.758Z,66.98
2018-09-08T05:19:06.495Z,67.42
2018-09-08T05:21:35.299Z,66.53
2018-09-08T05:24:04.305Z,65.93
2018-09-08T05:26:33.267Z,65.45
2018-09-08T05:29:02.195Z,65.12
2018-09-08T05:31:31.376Z,64.80
2018-09-08T05:34:00.396Z,64.76
2018-09-08T05:36:29.319Z,64.36
2018-09-08T05:39:00.213Z,64.28
2018-09-08T05:41:29.319Z,63.63
2018-09-08T05:43:58.302Z,62.92
2018-09-08T05:48:55.340Z,61.92
2018-09-08T05:51:24.187Z,62.16
2018-09-08T05:53:53.237Z,61.04
2018-09-08T05:56:22.558Z,60.63
2018-09-08T05:58:51.435Z,60.40
2018-09-08T06:01:20.759Z,60.26
2018-09-08T06:03:49.551Z,60.41
2018-09-08T06:06:18.614Z,60.25
2018-09-08T06:08:49.754Z,60.36
2018-09-08T06:11:20.015Z,60.38
2018-09-08T06:13:48.884Z,59.88
2018-09-08T06:16:17.960Z,59.00
2018-09-08T06:18:50.180Z,59.50
2018-09-08T06:21:19.190Z,58.64
2018-09-08T06:23:48.012Z,58.26
2018-09-08T06:26:17.379Z,57.53
2018-09-08T06:28:50.224Z,56.92
2018-09-08T06:31:19.041Z,56.19
2018-09-08T06:33:48.240Z,56.87
2018-09-08T06:36:17.276Z,56.12
2018-09-08T06:38:46.240Z,54.71
2018-09-08T06:41:15.144Z,54.47
2018-09-08T06:43:44.102Z,54.28
2018-09-08T06:46:13.049Z,53.81
2018-09-08T06:48:41.877Z,52.54
2018-09-08T06:51:11.009Z,51.59
2018-09-08T06:53:39.986Z,52.39
2018-09-08T06:56:08.890Z,52.11
2018-09-08T06:58:37.804Z,52.28
2018-09-08T07:01:06.956Z,51.24
2018-09-08T07:03:39.529Z,50.28
2018-09-08T07:06:08.394Z,50.16
2018-09-08T07:08:37.397Z,50.56
2018-09-08T07:11:06.638Z,50.31
2018-09-08T07:13:36.113Z,50.39
2018-09-08T07:16:05.027Z,49.60
2018-09-08T07:18:34.094Z,48.88
2018-09-08T07:21:02.993Z,49.09
2018-09-08T07:23:32.421Z,48.38
2018-09-08T07:26:01.393Z,47.85
2018-09-08T07:28:30.568Z,48.24
2018-09-08T07:30:59.416Z,48.22
2018-09-08T07:33:28.889Z,47.62
2018-09-08T07:35:57.689Z,47.64
2018-09-08T07:38:26.633Z,47.29
2018-09-08T07:40:55.779Z,46.72
2018-09-08T07:43:24.865Z,45.41
2018-09-08T07:45:53.983Z,45.71
2018-09-08T07:48:23.076Z,44.96
2018-09-08T07:50:51.872Z,45.53
2018-09-08T07:55:58.854Z,44.02
2018-09-08T07:58:27.957Z,43.73
2018-09-08T08:00:57.030Z,43.30
2018-09-08T08:03:26.084Z,42.07
2018-09-08T08:05:55.057Z,42.39
2018-09-08T08:08:23.987Z,42.60
2018-09-08T08:10:53.794Z,43.26
2018-09-08T08:13:22.929Z,42.35
2018-09-08T08:15:51.862Z,42.28
2018-09-08T08:18:21.169Z,42.55
2018-09-08T08:20:50.130Z,41.31
2018-09-08T08:23:19.085Z,41.22
2018-09-08T08:25:48.107Z,40.50
2018-09-08T08:28:17.020Z,40.71
2018-09-08T08:30:45.963Z,40.52
2018-09-08T08:33:14.884Z,38.47
2018-09-08T08:35:43.789Z,38.64
2018-09-08T08:38:12.741Z,37.81
2018-09-08T08:40:42.082Z,37.03
2018-09-08T08:43:11.014Z,37.41
2018-09-08T08:45:40.143Z,36.40
2018-09-08T08:48:09.362Z,36.32
2018-09-08T08:50:49.012Z,35.40
2018-09-08T08:53:31.069Z,36.96
2018-09-08T08:55:59.916Z,35.89
2018-09-08T08:58:28.844Z,34.49
2018-09-08T09:00:57.863Z,35.14
2018-09-08T09:03:26.720Z,35.26
2018-09-08T09:05:55.681Z,34.28
2018-09-08T09:08:25.457Z,34.08
2018-09-08T09:10:53.981Z,34.21
2018-09-08T09:13:22.924Z,34.27
2018-09-08T09:15:51.950Z,32.52
2018-09-08T09:19:32.930Z,33.49
2018-09-08T09:22:13.302Z,31.38
2018-09-08T09:24:51.415Z,32.50
2018-09-08T09:27:20.009Z,32.57
2018-09-08T09:29:48.938Z,31.92
2018-09-08T09:32:17.832Z,31.55
2018-09-08T09:34:47.080Z,31.89
2018-09-08T09:37:16.095Z,31.33
2018-09-08T09:39:45.125Z,29.94
2018-09-08T09:42:14.574Z,29.51
2018-09-08T09:44:43.477Z,30.10
2018-09-08T09:47:12.479Z,30.98
2018-09-08T09:49:41.404Z,30.91
2018-09-08T09:52:10.392Z,29.34
2018-09-08T09:54:39.413Z,29.41
2018-09-08T09:57:08.487Z,29.09
2018-09-08T09:59:37.433Z,30.16
2018-09-08T10:03:12.122Z,30.63
2018-09-08T10:05:41.093Z,29.71
2018-09-08T10:08:10.061Z,28.54
2018-09-08T10:10:39.492Z,29.54
2018-09-08T10:13:08.373Z,30.78
2018-09-08T10:15:37.190Z,30.46
2018-09-08T10:18:06.160Z,29.16
2018-09-08T10:20:35.013Z,30.19
2018-09-08T10:23:04.036Z,31.78
2018-09-08T10:25:33.028Z,31.87
2018-09-08T10:28:01.888Z,32.09
2018-09-08T10:30:30.807Z,32.20
2018-09-08T10:32:59.745Z,32.27
2018-09-08T10:35:28.631Z,31.89
2018-09-08T10:37:57.539Z,32.96
2018-09-08T10:40:27.021Z,32.32
2018-09-08T10:42:55.909Z,30.88
2018-09-08T10:45:24.994Z,31.60
2018-09-08T10:47:54.278Z,32.01
2018-09-08T10:50:23.343Z,31.40
2018-09-08T10:52:52.373Z,30.77
2018-09-08T10:55:27.014Z,30.49
2018-09-08T10:57:55.857Z,32.10
2018-09-08T11:00:24.906Z,31.32
2018-09-08T11:02:54.636Z,31.82
2018-09-08T11:05:23.272Z,33.25
2018-09-08T11:07:52.195Z,33.59
2018-09-08T11:10:21.661Z,32.01
2018-09-08T11:12:50.527Z,32.64
2018-09-08T11:15:19.584Z,30.56
2018-09-08T11:17:48.996Z,31.22
2018-09-08T11:20:17.834Z,30.54
2018-09-08T11:22:46.804Z,30.83
2018-09-08T11:25:15.686Z,30.19
2018-09-08T11:27:44.581Z,31.20
2018-09-08T11:30:13.591Z,30.33
2018-09-08T11:32:43.051Z,30.54
2018-09-08T11:35:11.966Z,29.84
2018-09-08T11:37:40.977Z,31.36
2018-09-08T11:40:10.331Z,31.17
2018-09-08T11:42:39.190Z,30.61
2018-09-08T11:45:11.804Z,30.84
2018-09-08T11:47:40.709Z,30.67
2018-09-08T11:50:09.553Z,30.34
2018-09-08T11:52:38.858Z,30.13
2018-09-08T11:55:07.734Z,29.03
2018-09-08T11:57:36.604Z,29.49
2018-09-08T12:00:06.539Z,29.79
2018-09-08T12:02:35.422Z,29.48
2018-09-08T12:05:04.362Z,28.70
2018-09-08T12:07:33.733Z,28.95
2018-09-08T12:10:02.716Z,27.90
2018-09-08T12:12:31.714Z,29.62
2018-09-08T12:15:00.662Z,30.30
2018-09-08T12:17:29.650Z,30.39
2018-09-08T12:19:58.585Z,29.44
2018-09-08T12:22:27.388Z,29.95
2018-09-08T12:24:56.211Z,30.03
2018-09-08T12:27:25.145Z,29.63
2018-09-08T12:29:54.177Z,30.12
2018-09-08T12:32:23.059Z,29.93
2018-09-08T12:34:52.042Z,29.13
2018-09-08T12:37:21.115Z,29.18
2018-09-08T12:39:50.091Z,29.32
2018-09-08T12:42:19.022Z,29.58
2018-09-08T12:44:47.982Z,28.03
2018-09-08T12:47:16.829Z,28.12
2018-09-08T12:49:45.730Z,28.45
2018-09-08T12:52:14.665Z,29.59
2018-09-08T12:54:43.620Z,30.45
2018-09-08T12:57:12.542Z,30.55
2018-09-08T12:59:41.853Z,30.43
2018-09-08T13:02:10.716Z,31.70
2018-09-08T13:04:39.633Z,31.13
2018-09-08T13:07:09.022Z,30.69
2018-09-08T13:09:37.949Z,30.93
2018-09-08T13:12:06.925Z,31.05
2018-09-08T13:14:36.262Z,30.92
2018-09-08T13:17:05.178Z,30.41
2018-09-08T13:19:34.097Z,30.68
2018-09-08T13:22:06.384Z,30.71
2018-09-08T13:24:35.336Z,31.62
2018-09-08T13:27:07.870Z,31.46
2018-09-08T13:29:37.256Z,31.25
2018-09-08T13:32:06.248Z,30.83
2018-09-08T13:34:35.203Z,31.25
2018-09-08T13:37:04.193Z,31.69
2018-09-08T13:39:33.222Z,32.57
2018-09-08T13:42:02.696Z,34.47
2018-09-08T13:44:31.669Z,34.55
2018-09-08T13:47:00.686Z,35.68
2018-09-08T13:49:30.114Z,36.33
2018-09-08T13:51:59.028Z,35.34
2018-09-08T13:54:28.296Z,36.06
2018-09-08T13:56:57.237Z,36.33
2018-09-08T13:59:26.520Z,35.55
2018-09-08T14:01:55.380Z,35.14
2018-09-08T14:04:24.668Z,35.17
2018-09-08T14:06:53.560Z,32.63
2018-09-08T14:09:22.602Z,32.23
2018-09-08T14:11:51.777Z,32.24
2018-09-08T14:14:21.708Z,33.15
2018-09-08T14:16:50.627Z,32.78
2018-09-08T14:19:20.504Z,33.03
2018-09-08T14:21:49.417Z,34.38
2018-09-08T14:24:18.259Z,34.11
2018-09-08T14:26:47.605Z,33.20
2018-09-08T14:29:16.631Z,33.80
2018-09-08T14:31:45.591Z,33.73
2018-09-08T14:34:15.036Z,34.99
2018-09-08T14:36:44.173Z,34.24
2018-09-08T14:39:13.136Z,34.89
2018-09-08T14:41:42.140Z,35.47
2018-09-08T14:44:11.057Z,34.97
2018-09-08T14:46:40.093Z,35.37
2018-09-08T14:49:09.492Z,36.41
2018-09-08T14:51:38.473Z,36.11
2018-09-08T14:54:07.437Z,37.44
2018-09-08T14:56:37.352Z,37.08
2018-09-08T14:59:06.268Z,37.81
2018-09-08T15:01:35.322Z,37.46
2018-09-08T15:04:04.223Z,38.65
2018-09-08T15:06:33.177Z,38.23
2018-09-08T15:09:02.145Z,38.52
2018-09-08T15:11:31.163Z,39.75
2018-09-08T15:14:00.187Z,39.07
2018-09-08T15:16:29.081Z,38.29
2018-09-08T15:18:59.108Z,39.31
2018-09-08T15:21:31.119Z,38.61
2018-09-08T15:24:00.282Z,37.92
2018-09-08T15:26:30.287Z,37.14
2018-09-08T15:28:59.362Z,37.58
2018-09-08T15:31:29.596Z,36.93
2018-09-08T15:33:58.463Z,37.17
2018-09-08T15:36:27.527Z,36.36
2018-09-08T15:38:56.767Z,35.99
2018-09-08T15:41:25.733Z,37.45
2018-09-08T15:43:54.730Z,38.67
2018-09-08T15:46:23.636Z,39.25
2018-09-08T15:48:52.662Z,41.18
2018-09-08T15:51:21.572Z,40.75
2018-09-08T15:53:50.998Z,41.33
2018-09-08T15:56:19.963Z,42.83
2018-09-08T15:58:48.802Z,42.20
2018-09-08T16:01:18.177Z,42.66
2018-09-08T16:03:47.102Z,43.49
2018-09-08T16:06:15.981Z,43.68
2018-09-08T16:08:44.904Z,43.23
2018-09-08T16:11:13.809Z,42.61
2018-09-08T16:13:46.106Z,43.02
2018-09-08T16:16:15.037Z,43.38
2018-09-08T16:18:44.049Z,43.60
2018-09-08T16:21:13.392Z,43.99
2018-09-08T16:23:42.313Z,44.66
2018-09-08T16:26:11.321Z,45.07
2018-09-08T16:28:40.368Z,45.27
2018-09-08T16:31:09.230Z,44.54
2018-09-08T16:33:38.293Z,44.88
2018-09-08T16:36:07.777Z,44.32
2018-09-08T16:38:40.626Z,45.41
2018-09-08T16:41:10.005Z,46.52
2018-09-08T16:43:39.131Z,47.53
2018-09-08T16:46:08.120Z,47.45
2018-09-08T16:48:37.059Z,48.47
2018-09-08T16:51:06.482Z,46.72
2018-09-08T16:53:35.373Z,45.74
2018-09-08T16:56:04.413Z,47.21
2018-09-08T16:58:33.254Z,45.98
2018-09-08T17:01:02.304Z,47.34
2018-09-08T17:03:32.867Z,46.68
2018-09-08T17:06:01.809Z,46.98
2018-09-08T17:08:30.739Z,47.47
2018-09-08T17:10:59.955Z,48.10
2018-09-08T17:13:28.909Z,48.99
2018-09-08T17:15:57.814Z,48.54
2018-09-08T17:18:27.218Z,49.47
2018-09-08T17:20:56.045Z,49.34
2018-09-08T17:23:25.069Z,48.78
2018-09-08T17:25:54.551Z,49.64
2018-09-08T17:28:23.590Z,48.92
2018-09-08T17:30:52.645Z,50.04
2018-09-08T17:33:21.978Z,49.20
2018-09-08T17:35:50.904Z,49.36
2018-09-08T17:38:19.866Z,49.61
2018-09-08T17:40:48.762Z,50.69
2018-09-08T17:43:17.595Z,49.96
2018-09-08T17:45:46.451Z,50.96
2018-09-08T17:48:15.897Z,50.30
2018-09-08T17:50:44.790Z,51.48
2018-09-08T17:53:13.674Z,51.74
2018-09-08T17:55:43.192Z,51.49
2018-09-08T17:58:12.197Z,51.63
2018-09-08T18:00:40.963Z,51.19
2018-09-08T18:03:10.009Z,51.20
2018-09-08T18:05:39.118Z,51.52
2018-09-08T18:08:07.953Z,52.25
2018-09-08T18:10:36.998Z,52.63
2018-09-08T18:13:06.510Z,52.08
2018-09-08T18:15:39.035Z,52.77
2018-09-08T18:18:08.030Z,52.70
2018-09-08T18:20:36.854Z,53.16
2018-09-08T18:23:05.885Z,53.78
2018-09-08T18:25:34.832Z,53.97
2018-09-08T18:28:03.677Z,54.82
2018-09-08T18:30:32.638Z,54.27
2018-09-08T18:33:01.562Z,54.73
2018-09-08T18:35:30.497Z,54.66
2018-09-08T18:37:59.518Z,55.75
2018-09-08T18:40:28.566Z,55.41
2018-09-08T18:42:57.576Z,54.94
2018-09-08T18:45:26.517Z,55.37
2018-09-08T18:47:55.540Z,55.40
2018-09-08T18:50:24.350Z,55.84
2018-09-08T18:52:57.078Z,56.23
2018-09-08T18:55:26.009Z,56.33
2018-09-08T18:57:54.878Z,56.24
2018-09-08T19:00:27.398Z,56.61
2018-09-08T19:02:56.295Z,57.11
2018-09-08T19:05:25.141Z,56.35
2018-09-08T19:07:54.417Z,56.88
2018-09-08T19:10:23.382Z,56.97
2018-09-08T19:12:52.314Z,57.21
2018-09-08T19:15:21.428Z,56.99
2018-09-08T19:17:51.102Z,56.91
2018-09-08T19:20:25.115Z,56.33
2018-09-08T19:22:53.961Z,57.24
2018-09-08T19:25:22.963Z,56.59
2018-09-08T19:27:52.330Z,56.89
2018-09-08T19:30:21.349Z,56.85
2018-09-08T19:32:50.445Z,57.18
2018-09-08T19:35:24.589Z,57.18
2018-09-08T19:37:53.503Z,56.73
2018-09-08T19:40:27.412Z,56.22
2018-09-08T19:42:56.805Z,56.84
2018-09-08T19:45:25.670Z,56.20
2018-09-08T19:48:00.148Z,56.40
2018-09-08T19:50:29.167Z,56.18
2018-09-08T19:53:03.560Z,57.10
2018-09-08T19:55:32.520Z,56.01
2018-09-08T19:58:07.073Z,56.08
2018-09-08T20:00:36.044Z,56.77
2018-09-08T20:03:05.004Z,56.19
2018-09-08T20:05:34.322Z,56.39
2018-09-08T20:08:03.200Z,56.45
2018-09-08T20:10:32.080Z,56.20
2018-09-08T20:13:01.024Z,56.46
2018-09-08T20:15:30.057Z,56.60
2018-09-08T20:17:58.896Z,56.44
2018-09-08T20:20:27.956Z,57.06
2018-09-08T20:22:56.992Z,56.54
2018-09-08T20:25:25.909Z,56.23
2018-09-08T20:27:54.902Z,56.35
2018-09-08T20:30:23.786Z,56.61
2018-09-08T20:32:52.876Z,56.05
2018-09-08T20:35:22.095Z,56.39
2018-09-08T20:37:51.066Z,56.70
2018-09-08T20:40:20.068Z,56.30
2018-09-08T20:42:49.483Z,57.18
2018-09-08T20:45:18.438Z,56.25
2018-09-08T20:47:47.645Z,56.88
2018-09-08T20:50:17.131Z,56.26
2018-09-08T20:52:46.681Z,56.76
2018-09-08T20:55:15.692Z,56.60
2018-09-08T20:57:44.864Z,57.33
2018-09-08T21:00:13.797Z,56.63
2018-09-08T21:02:42.698Z,57.44
2018-09-08T21:05:11.739Z,57.03
2018-09-08T21:07:40.716Z,57.35
2018-09-08T21:10:09.648Z,57.19
2018-09-08T21:12:38.514Z,57.82
2018-09-08T21:15:07.738Z,57.44
2018-09-08T21:17:36.606Z,57.53
2018-09-08T21:20:05.997Z,56.51
2018-09-08T21:22:34.889Z,56.85
2018-09-08T21:25:03.853Z,56.30
2018-09-08T21:27:33.320Z,56.71
2018-09-08T21:30:02.262Z,57.22
2018-09-08T21:32:31.113Z,56.70
2018-09-08T21:35:00.437Z,56.89
2018-09-08T21:37:29.790Z,57.12
2018-09-08T21:40:01.858Z,56.78
2018-09-08T21:42:30.655Z,57.15
2018-09-08T21:44:59.506Z,57.28
2018-09-08T21:47:28.766Z,57.09
2018-09-08T21:49:57.696Z,57.75
2018-09-08T21:52:26.787Z,57.28
2018-09-08T21:54:56.054Z,57.43
2018-09-08T21:57:24.987Z,57.61
2018-09-08T21:59:54.033Z,57.46
2018-09-08T22:02:23.322Z,57.54
2018-09-08T22:04:55.445Z,58.03
2018-09-08T22:07:24.777Z,57.72
2018-09-08T22:09:53.735Z,58.10
2018-09-08T22:12:23.012Z,57.86
2018-09-08T22:14:52.405Z,57.86
2018-09-08T22:17:21.681Z,58.22
2018-09-08T22:19:50.561Z,58.04
2018-09-08T22:22:19.768Z,57.92
2018-09-08T22:24:48.794Z,59.00
2018-09-08T22:27:17.621Z,58.91
2018-09-08T22:29:49.002Z,59.09
2018-09-08T22:32:17.996Z,58.75
2018-09-08T22:34:46.981Z,59.79
2018-09-08T22:37:15.952Z,59.52
2018-09-08T22:39:44.891Z,60.21
2018-09-08T22:42:13.715Z,60.60
2018-09-08T22:44:43.029Z,60.57
2018-09-08T22:47:12.240Z,61.16
2018-09-08T22:49:41.267Z,61.23
2018-09-08T22:52:10.255Z,61.82
2018-09-08T22:54:42.975Z,61.62
2018-09-08T22:57:11.963Z,61.86
2018-09-08T22:59:40.895Z,61.71
2018-09-08T23:02:09.780Z,62.54
2018-09-08T23:04:39.169Z,62.05
2018-09-08T23:07:08.146Z,61.94
2018-09-08T23:09:37.064Z,62.19
2018-09-08T23:12:06.287Z,62.10
2018-09-08T23:14:35.346Z,62.15
2018-09-08T23:17:04.279Z,62.21
2018-09-08T23:19:33.738Z,62.06
2018-09-08T23:22:02.628Z,62.30
2018-09-08T23:24:31.524Z,62.21
2018-09-08T23:27:00.700Z,62.54
2018-09-08T23:29:29.627Z,62.25
2018-09-08T23:31:58.457Z,62.54
2018-09-08T23:34:27.760Z,62.66
2018-09-08T23:36:56.748Z,62.29
2018-09-08T23:39:25.693Z,62.18
2018-09-08T23:41:54.662Z,62.29
2018-09-08T23:44:23.513Z,62.21
2018-09-08T23:46:52.445Z,62.35
2018-09-08T23:49:21.493Z,62.71
2018-09-08T23:51:50.406Z,62.63
2018-09-08T23:54:19.404Z,63.11
2018-09-08T23:56:48.786Z,63.22
2018-09-08T23:59:17.678Z,63.07
